PWSweather.com
Personal Weather Stations
Station Observations
KNYSALTS1
Hessville, Fort Plain, NY

HessvilleFort Plain, NY

Lat: 42.86430704, Lon: -74.72141266

Elevation: 1041

Station Type: Davis Vantage Pro2 Plus

https://indiantrailweather.com

Latest ConditionsUpdated 7:50:09 AM EDT Sunday, Mar 24, 2019
Currently Today's Max Today's Min Today's Average
Temperature 29.2°F-1.6°C 29.4°F-1.4°C 26.9°F-2.8°C 28.2°F-2.1°C
Dew Point 21.6°F-5.8°C 22.4°F-5.3°C 19.4°F-7.0°C 21.2°F-6.0°C
Winds 12.7 mph WSW20.4 kmh WSW 18.4 mph -29.6 kmh - - 13.3 mph 21.4 kmh
Wind Gusts 19.6 mph31.5 kmh 23.0 mph37.0 kmh - -
Humidity 73% 78% 72% 75%
Pressure 30.15 in1021.0 mb 30.16 in1021.3 mb 30.13 in1020.3 mb -
Hour Temp Dew Point Humidity Winds Wind Gusts Pressure Precip Precip Rate Daily Precip Total
07:50 AM 29.2°F-1.6°C 21.6°F-5.8°C 73% 12.7 mph WSW20.4 kmh WSW 19.6 mph31.5 kmh 30.15 in1021.0 mb - 0.00 in0.0 mm 0.00 in0.0 mm
07:40 AM 28.9°F-1.7°C 21.3°F-5.9°C 73% 10.4 mph SW16.7 kmh SW 12.7 mph20.4 kmh 30.15 in1021.0 mb - 0.00 in0.0 mm 0.00 in0.0 mm
07:30 AM 28.6°F-1.9°C 21.0°F-6.1°C 73% 11.5 mph SW18.5 kmh SW 15.0 mph24.1 kmh 30.15 in1021.0 mb - 0.00 in0.0 mm 0.00 in0.0 mm
07:20 AM 28.1°F-2.2°C 20.9°F-6.2°C 74% 13.8 mph SW22.2 kmh SW 12.7 mph20.4 kmh 30.15 in1021.0 mb - 0.00 in0.0 mm 0.00 in0.0 mm
07:10 AM 27.8°F-2.3°C 20.9°F-6.2°C 75% 15.0 mph WSW24.1 kmh WSW 15.0 mph24.1 kmh 30.14 in1020.7 mb - 0.00 in0.0 mm 0.00 in0.0 mm
07:00 AM 27.6°F-2.4°C 20.7°F-6.3°C 75% 9.2 mph SW14.8 kmh SW 9.2 mph14.8 kmh 30.14 in1020.7 mb - 0.00 in0.0 mm 0.00 in0.0 mm
06:50 AM 27.5°F-2.5°C 20.6°F-6.3°C 75% 9.2 mph SW14.8 kmh SW 9.2 mph14.8 kmh 30.14 in1020.7 mb - 0.00 in0.0 mm 0.00 in0.0 mm
06:40 AM 27.2°F-2.7°C 20.9°F-6.2°C 77% 10.4 mph SW16.7 kmh SW 15.0 mph24.1 kmh 30.14 in1020.7 mb - 0.00 in0.0 mm 0.00 in0.0 mm
06:30 AM 26.9°F-2.8°C 20.7°F-6.3°C 77% 5.8 mph WSW9.3 kmh WSW 5.8 mph9.3 kmh 30.14 in1020.7 mb - 0.00 in0.0 mm 0.00 in0.0 mm
06:20 AM 27.2°F-2.7°C 20.6°F-6.3°C 76% 8.1 mph WSW13.0 kmh WSW 9.2 mph14.8 kmh 30.14 in1020.7 mb - 0.00 in0.0 mm 0.00 in0.0 mm
06:10 AM 27.5°F-2.5°C 20.9°F-6.2°C 76% 9.2 mph WSW14.8 kmh WSW 10.4 mph16.7 kmh 30.14 in1020.7 mb - 0.00 in0.0 mm 0.00 in0.0 mm
06:00 AM 27.8°F-2.3°C 20.9°F-6.2°C 75% 11.5 mph WSW18.5 kmh WSW 11.5 mph18.5 kmh 30.14 in1020.7 mb - 0.00 in0.0 mm 0.00 in0.0 mm
05:50 AM 28.4°F-2.0°C 21.5°F-5.8°C 75% 13.8 mph WSW22.2 kmh WSW 16.1 mph25.9 kmh 30.14 in1020.7 mb - 0.00 in0.0 mm 0.00 in0.0 mm
05:40 AM 28.7°F-1.8°C 21.8°F-5.7°C 75% 16.1 mph WSW25.9 kmh WSW 16.1 mph25.9 kmh 30.14 in1020.7 mb - 0.00 in0.0 mm 0.00 in0.0 mm
05:30 AM 28.8°F-1.8°C 21.9°F-5.6°C 75% 16.1 mph WSW25.9 kmh WSW 16.1 mph25.9 kmh 30.14 in1020.7 mb - 0.00 in0.0 mm 0.00 in0.0 mm
05:20 AM 29.1°F-1.6°C 21.8°F-5.7°C 74% 15.0 mph WSW24.1 kmh WSW 16.1 mph25.9 kmh 30.14 in1020.7 mb - 0.00 in0.0 mm 0.00 in0.0 mm
05:10 AM 29.1°F-1.6°C 21.8°F-5.7°C 74% 15.0 mph WSW24.1 kmh WSW 17.3 mph27.8 kmh 30.14 in1020.7 mb - 0.00 in0.0 mm 0.00 in0.0 mm
05:00 AM 29.1°F-1.6°C 21.6°F-5.8°C 73% 12.7 mph WSW20.4 kmh WSW 16.1 mph25.9 kmh 30.14 in1020.7 mb - 0.00 in0.0 mm 0.00 in0.0 mm
04:50 AM 29.2°F-1.6°C 21.6°F-5.8°C 73% 11.5 mph WSW18.5 kmh WSW 13.8 mph22.2 kmh 30.14 in1020.7 mb - 0.00 in0.0 mm 0.00 in0.0 mm
04:40 AM 29.4°F-1.4°C 21.5°F-5.8°C 72% 11.5 mph WSW18.5 kmh WSW 15.0 mph24.1 kmh 30.14 in1020.7 mb - 0.00 in0.0 mm 0.00 in0.0 mm
04:30 AM 29.1°F-1.6°C 21.2°F-6.0°C 72% 10.4 mph W16.7 kmh W 10.4 mph16.7 kmh 30.14 in1020.7 mb - 0.00 in0.0 mm 0.00 in0.0 mm
04:20 AM 28.8°F-1.8°C 21.3°F-5.9°C 73% 9.2 mph W14.8 kmh W 13.8 mph22.2 kmh 30.14 in1020.7 mb - 0.00 in0.0 mm 0.00 in0.0 mm
04:10 AM 28.9°F-1.7°C 21.0°F-6.1°C 72% 15.0 mph WSW24.1 kmh WSW 16.1 mph25.9 kmh 30.14 in1020.7 mb - 0.00 in0.0 mm 0.00 in0.0 mm
04:00 AM 28.7°F-1.8°C 21.1°F-6.1°C 73% 12.7 mph WSW20.4 kmh WSW 16.1 mph25.9 kmh 30.14 in1020.7 mb - 0.00 in0.0 mm 0.00 in0.0 mm
03:50 AM 28.8°F-1.8°C 20.9°F-6.2°C 72% 13.8 mph WSW22.2 kmh WSW 17.3 mph27.8 kmh 30.15 in1021.0 mb - 0.00 in0.0 mm 0.00 in0.0 mm
03:40 AM 28.5°F-1.9°C 20.9°F-6.2°C 73% 10.4 mph WSW16.7 kmh WSW 15.0 mph24.1 kmh 30.15 in1021.0 mb - 0.00 in0.0 mm 0.00 in0.0 mm
03:30 AM 28.7°F-1.8°C 21.5°F-5.8°C 74% 13.8 mph WSW22.2 kmh WSW 13.8 mph22.2 kmh 30.15 in1021.0 mb - 0.00 in0.0 mm 0.00 in0.0 mm
03:20 AM 28.9°F-1.7°C 21.7°F-5.7°C 74% 15.0 mph WSW24.1 kmh WSW 13.8 mph22.2 kmh 30.15 in1021.0 mb - 0.00 in0.0 mm 0.00 in0.0 mm
03:10 AM 28.8°F-1.8°C 21.9°F-5.6°C 75% 12.7 mph WSW20.4 kmh WSW 16.1 mph25.9 kmh 30.15 in1021.0 mb - 0.00 in0.0 mm 0.00 in0.0 mm
03:00 AM 28.9°F-1.7°C 22.3°F-5.4°C 76% 15.0 mph WSW24.1 kmh WSW 15.0 mph24.1 kmh 30.16 in1021.3 mb - 0.00 in0.0 mm 0.00 in0.0 mm
02:50 AM 29.0°F-1.7°C 22.4°F-5.3°C 76% 13.8 mph WSW22.2 kmh WSW 15.0 mph24.1 kmh 30.16 in1021.3 mb - 0.00 in0.0 mm 0.00 in0.0 mm
02:40 AM 28.9°F-1.7°C 22.3°F-5.4°C 76% 15.0 mph WSW24.1 kmh WSW 13.8 mph22.2 kmh 30.16 in1021.3 mb - 0.00 in0.0 mm 0.00 in0.0 mm
02:30 AM 28.5°F-1.9°C 22.2°F-5.4°C 77% 9.2 mph WSW14.8 kmh WSW 10.4 mph16.7 kmh 30.16 in1021.3 mb - 0.00 in0.0 mm 0.00 in0.0 mm
02:20 AM 27.9°F-2.3°C 21.9°F-5.6°C 78% 12.7 mph WSW20.4 kmh WSW 23.0 mph37.0 kmh 30.16 in1021.3 mb - 0.00 in0.0 mm 0.00 in0.0 mm
02:10 AM 27.7°F-2.4°C 21.7°F-5.7°C 78% 12.7 mph WSW20.4 kmh WSW 13.8 mph22.2 kmh 30.16 in1021.3 mb - 0.00 in0.0 mm 0.00 in0.0 mm
02:00 AM 27.5°F-2.5°C 21.2°F-6.0°C 77% 13.8 mph WSW22.2 kmh WSW 13.8 mph22.2 kmh 30.15 in1021.0 mb - 0.00 in0.0 mm 0.00 in0.0 mm
01:50 AM 27.6°F-2.4°C 21.3°F-5.9°C 77% 15.0 mph WSW24.1 kmh WSW 17.3 mph27.8 kmh 30.15 in1021.0 mb - 0.00 in0.0 mm 0.00 in0.0 mm
01:40 AM 27.7°F-2.4°C 21.4°F-5.9°C 77% 16.1 mph WSW25.9 kmh WSW 16.1 mph25.9 kmh 30.14 in1020.7 mb - 0.00 in0.0 mm 0.00 in0.0 mm
01:30 AM 27.7°F-2.4°C 21.1°F-6.1°C 76% 15.0 mph WSW24.1 kmh WSW 12.7 mph20.4 kmh 30.14 in1020.7 mb - 0.00 in0.0 mm 0.00 in0.0 mm
01:20 AM 27.7°F-2.4°C 21.1°F-6.1°C 76% 13.8 mph WSW22.2 kmh WSW 15.0 mph24.1 kmh 30.14 in1020.7 mb - 0.00 in0.0 mm 0.00 in0.0 mm
01:10 AM 27.8°F-2.3°C 20.9°F-6.2°C 75% 15.0 mph WSW24.1 kmh WSW 16.1 mph25.9 kmh 30.14 in1020.7 mb - 0.00 in0.0 mm 0.00 in0.0 mm
01:00 AM 27.7°F-2.4°C 20.8°F-6.2°C 75% 16.1 mph WSW25.9 kmh WSW 17.3 mph27.8 kmh 30.14 in1020.7 mb - 0.00 in0.0 mm 0.00 in0.0 mm
12:50 AM 27.4°F-2.6°C 20.5°F-6.4°C 75% 16.1 mph WSW25.9 kmh WSW 17.3 mph27.8 kmh 30.14 in1020.7 mb - 0.00 in0.0 mm 0.00 in0.0 mm
12:40 AM 27.6°F-2.4°C 20.4°F-6.4°C 74% 17.3 mph WSW27.8 kmh WSW 19.6 mph31.5 kmh 30.13 in1020.3 mb - 0.00 in0.0 mm 0.00 in0.0 mm
12:30 AM 27.6°F-2.4°C 20.4°F-6.4°C 74% 18.4 mph WSW29.6 kmh WSW 19.6 mph31.5 kmh 30.13 in1020.3 mb - 0.00 in0.0 mm 0.00 in0.0 mm
12:20 AM 27.5°F-2.5°C 20.0°F-6.7°C 73% 16.1 mph WSW25.9 kmh WSW 17.3 mph27.8 kmh 30.14 in1020.7 mb - 0.00 in0.0 mm 0.00 in0.0 mm
12:10 AM 27.5°F-2.5°C 20.0°F-6.7°C 73% 18.4 mph WSW29.6 kmh WSW 20.7 mph33.3 kmh 30.13 in1020.3 mb - 0.00 in0.0 mm 0.00 in0.0 mm
12:00 AM 27.2°F-2.7°C 19.4°F-7.0°C 72% 18.4 mph WSW29.6 kmh WSW 20.7 mph33.3 kmh 30.13 in1020.3 mb - 0.00 in0.0 mm 0.00 in0.0 mm